Delta Virtual Airport Information Service

Miami International Airport

ICAO: KMIA Country: United States
Latitude: 25.7932 Longitude: -80.2905
Latest Arrival : AAL39 (2) (EGLL-KMIA) Latest Departure : DALJUMP (KMIA-KRDU)


WX CaptureLIVE
Data provided by noaa.gov | Fetched at 22:08:00

METAR : KMIA 240253Z 07012KT 10SM FEW028 FEW038 SCT250 27/22 A2995 RMK AO2 SLP141 T02720222 53001 $

TAF : KMIA 232333Z 2400/2506 08011KT P6SM VCSH SCT025 BKN060 BKN250 FM240500 10006KT P6SM SCT035 BKN080 BKN250 FM241200 08008KT P6SM VCSH SCT025 BKN050 OVC250 FM241800 08010KT 6SM SHRA VCTS SCT025CB BKN050 OVC250


Runway Data for KMIA
Data provided by openaviationdata.com

Runway ID Mag Var Hdg Length Elevation Surface ILS Freq ILS Id ILS Slope
08L -5 92° 8595 ft 8 ft Concrete 109.3 IROY 0
08R -5 92° 10498 ft 8 ft Asphalt 110.3 IMFA 3
9 -5 92° 12994 ft 8 ft Concrete 110.9 IBUL 3
12 -5 124° 9357 ft 8 ft Concrete 108.9 IGEM 3
26L -5 272° 10498 ft 8 ft Asphalt 109.1 IVIN 3
26R -5 272° 8595 ft 8 ft Concrete 109.3 ICNV 0
27 -5 272° 12994 ft 8 ft Concrete 109.5 IMIA 3
30 -5 304° 9357 ft 8 ft Concrete 111.7 IDCX 3

Miami International Airport, United States
Use only for reference purposes



Not for navigational purposes.